sensor_id;sensor_type;location;lat;lon;timestamp;pressure;altitude;pressure_sealevel;temperature;humidity
30724;BME280;17473;52.286;20.930;2023-05-12T00:00:17;100940.44;;;11.73;42.51
30724;BME280;17473;52.286;20.930;2023-05-12T00:02:45;100941.81;;;11.86;42.40
30724;BME280;17473;52.286;20.930;2023-05-12T00:05:12;100935.41;;;12.03;41.79
30724;BME280;17473;52.286;20.930;2023-05-12T00:07:39;100942.41;;;12.01;41.76
30724;BME280;17473;52.286;20.930;2023-05-12T00:10:06;100952.34;;;11.84;42.01
30724;BME280;17473;52.286;20.930;2023-05-12T00:12:33;100953.31;;;11.86;42.10
30724;BME280;17473;52.286;20.930;2023-05-12T00:15:00;100953.13;;;11.82;41.99
30724;BME280;17473;52.286;20.930;2023-05-12T00:17:27;100947.59;;;11.75;42.19
30724;BME280;17473;52.286;20.930;2023-05-12T00:19:55;100946.88;;;11.80;42.22
30724;BME280;17473;52.286;20.930;2023-05-12T00:22:22;100950.34;;;11.79;42.15
30724;BME280;17473;52.286;20.930;2023-05-12T00:24:49;100944.22;;;11.80;42.49
30724;BME280;17473;52.286;20.930;2023-05-12T00:27:15;100945.72;;;11.96;41.92
30724;BME280;17473;52.286;20.930;2023-05-12T00:29:42;100955.03;;;11.86;41.87
30724;BME280;17473;52.286;20.930;2023-05-12T00:32:10;100949.03;;;11.90;41.84
30724;BME280;17473;52.286;20.930;2023-05-12T00:34:37;100954.38;;;11.92;41.47
30724;BME280;17473;52.286;20.930;2023-05-12T00:37:04;100944.22;;;11.80;41.71
30724;BME280;17473;52.286;20.930;2023-05-12T00:39:32;100948.69;;;11.81;41.62
30724;BME280;17473;52.286;20.930;2023-05-12T00:41:59;100951.31;;;11.81;41.49
30724;BME280;17473;52.286;20.930;2023-05-12T00:44:26;100955.53;;;11.75;41.65
30724;BME280;17473;52.286;20.930;2023-05-12T00:46:53;100957.78;;;11.65;41.64
30724;BME280;17473;52.286;20.930;2023-05-12T00:49:21;100961.25;;;11.64;41.49
30724;BME280;17473;52.286;20.930;2023-05-12T00:51:48;100962.44;;;11.72;41.56
30724;BME280;17473;52.286;20.930;2023-05-12T00:54:16;100961.34;;;11.65;41.48
30724;BME280;17473;52.286;20.930;2023-05-12T00:56:43;100961.97;;;11.82;41.36
30724;BME280;17473;52.286;20.930;2023-05-12T00:59:10;100962.56;;;11.75;41.34
30724;BME280;17473;52.286;20.930;2023-05-12T01:01:37;100959.69;;;11.69;41.60
30724;BME280;17473;52.286;20.930;2023-05-12T01:04:05;100956.44;;;11.76;41.46
30724;BME280;17473;52.286;20.930;2023-05-12T01:06:52;100963.97;;;11.65;41.85
30724;BME280;17473;52.286;20.930;2023-05-12T01:09:20;100964.78;;;11.87;41.11
30724;BME280;17473;52.286;20.930;2023-05-12T01:11:47;100968.03;;;11.80;41.48
30724;BME280;17473;52.286;20.930;2023-05-12T01:14:14;100971.78;;;11.62;41.83
30724;BME280;17473;52.286;20.930;2023-05-12T01:16:51;100963.31;;;11.48;42.08
30724;BME280;17473;52.286;20.930;2023-05-12T01:19:52;100966.00;;;11.50;41.94
30724;BME280;17473;52.286;20.930;2023-05-12T01:22:19;100978.63;;;11.57;41.68
30724;BME280;17473;52.286;20.930;2023-05-12T01:27:22;100970.03;;;11.40;42.17
30724;BME280;17473;52.286;20.930;2023-05-12T01:29:52;100971.56;;;11.56;41.97
30724;BME280;17473;52.286;20.930;2023-05-12T01:32:20;100979.59;;;11.59;41.61
30724;BME280;17473;52.286;20.930;2023-05-12T01:34:48;100975.94;;;11.55;41.83
30724;BME280;17473;52.286;20.930;2023-05-12T01:37:16;100977.56;;;11.52;41.92
30724;BME280;17473;52.286;20.930;2023-05-12T01:39:43;100987.06;;;11.47;41.98
30724;BME280;17473;52.286;20.930;2023-05-12T01:42:10;100974.50;;;11.41;42.03
30724;BME280;17473;52.286;20.930;2023-05-12T01:44:37;100976.34;;;11.43;42.40
30724;BME280;17473;52.286;20.930;2023-05-12T01:47:04;100975.00;;;11.32;42.40
30724;BME280;17473;52.286;20.930;2023-05-12T01:49:36;100984.56;;;11.28;42.50
30724;BME280;17473;52.286;20.930;2023-05-12T01:52:04;100972.03;;;11.46;42.23
30724;BME280;17473;52.286;20.930;2023-05-12T01:54:31;100983.31;;;11.19;42.81
30724;BME280;17473;52.286;20.930;2023-05-12T01:56:58;100979.94;;;11.23;42.69
30724;BME280;17473;52.286;20.930;2023-05-12T01:59:26;100985.34;;;11.26;42.61
30724;BME280;17473;52.286;20.930;2023-05-12T02:01:53;100986.06;;;11.22;42.30
30724;BME280;17473;52.286;20.930;2023-05-12T02:04:20;100987.88;;;11.02;43.15
30724;BME280;17473;52.286;20.930;2023-05-12T02:06:47;100984.34;;;11.01;43.12
30724;BME280;17473;52.286;20.930;2023-05-12T02:09:14;100977.00;;;11.15;43.00
30724;BME280;17473;52.286;20.930;2023-05-12T02:11:41;100982.09;;;11.10;42.98
30724;BME280;17473;52.286;20.930;2023-05-12T02:14:08;100981.31;;;11.13;43.05
30724;BME280;17473;52.286;20.930;2023-05-12T02:16:35;100984.00;;;11.15;42.89
30724;BME280;17473;52.286;20.930;2023-05-12T02:19:02;100992.16;;;11.21;42.82
30724;BME280;17473;52.286;20.930;2023-05-12T02:21:30;100977.91;;;10.94;43.42
30724;BME280;17473;52.286;20.930;2023-05-12T02:23:57;100988.91;;;11.05;43.51
30724;BME280;17473;52.286;20.930;2023-05-12T02:26:24;100988.22;;;10.88;43.74
30724;BME280;17473;52.286;20.930;2023-05-12T02:28:51;100984.56;;;10.85;43.77
30724;BME280;17473;52.286;20.930;2023-05-12T02:31:18;100984.25;;;11.00;43.26
30724;BME280;17473;52.286;20.930;2023-05-12T02:33:45;100995.13;;;11.06;43.65
30724;BME280;17473;52.286;20.930;2023-05-12T02:36:12;100994.78;;;10.98;43.91
30724;BME280;17473;52.286;20.930;2023-05-12T02:38:39;101003.97;;;10.87;44.01
30724;BME280;17473;52.286;20.930;2023-05-12T02:41:07;101004.81;;;10.86;44.14
30724;BME280;17473;52.286;20.930;2023-05-12T02:43:34;101001.53;;;10.70;44.39
30724;BME280;17473;52.286;20.930;2023-05-12T02:46:01;101009.28;;;10.87;44.16
30724;BME280;17473;52.286;20.930;2023-05-12T02:48:28;101008.59;;;10.91;44.03
30724;BME280;17473;52.286;20.930;2023-05-12T02:50:55;101014.41;;;10.62;45.13
30724;BME280;17473;52.286;20.930;2023-05-12T02:53:23;101004.22;;;10.72;44.71
30724;BME280;17473;52.286;20.930;2023-05-12T02:55:50;101012.66;;;10.63;44.84
30724;BME280;17473;52.286;20.930;2023-05-12T02:58:17;101015.25;;;10.61;45.25
30724;BME280;17473;52.286;20.930;2023-05-12T03:00:44;101019.50;;;10.58;45.23
30724;BME280;17473;52.286;20.930;2023-05-12T03:03:13;101024.84;;;10.59;45.23
30724;BME280;17473;52.286;20.930;2023-05-12T03:05:40;101015.56;;;10.69;44.92
30724;BME280;17473;52.286;20.930;2023-05-12T03:08:07;101016.88;;;10.58;45.33
30724;BME280;17473;52.286;20.930;2023-05-12T03:10:34;101021.28;;;10.59;45.21
30724;BME280;17473;52.286;20.930;2023-05-12T03:13:01;101009.09;;;10.62;45.22
30724;BME280;17473;52.286;20.930;2023-05-12T03:15:28;101015.34;;;10.84;44.90
30724;BME280;17473;52.286;20.930;2023-05-12T03:17:55;101016.94;;;11.02;44.55
30724;BME280;17473;52.286;20.930;2023-05-12T03:20:23;101016.94;;;11.02;44.27
30724;BME280;17473;52.286;20.930;2023-05-12T03:22:50;101008.91;;;11.42;43.76
30724;BME280;17473;52.286;20.930;2023-05-12T03:25:17;101007.16;;;11.88;42.68
30724;BME280;17473;52.286;20.930;2023-05-12T03:27:44;101007.53;;;12.45;41.44
30724;BME280;17473;52.286;20.930;2023-05-12T03:30:12;101000.66;;;12.76;40.41
30724;BME280;17473;52.286;20.930;2023-05-12T03:32:39;101011.75;;;13.72;38.96
30724;BME280;17473;52.286;20.930;2023-05-12T03:35:06;101011.31;;;14.17;37.62
30724;BME280;17473;52.286;20.930;2023-05-12T03:37:33;101014.44;;;14.97;36.54
30724;BME280;17473;52.286;20.930;2023-05-12T03:40:01;101010.88;;;15.71;35.63
30724;BME280;17473;52.286;20.930;2023-05-12T03:42:28;101011.69;;;16.51;34.13
30724;BME280;17473;52.286;20.930;2023-05-12T03:44:55;101009.03;;;17.56;32.33
30724;BME280;17473;52.286;20.930;2023-05-12T03:47:22;101014.38;;;17.54;31.98
30724;BME280;17473;52.286;20.930;2023-05-12T03:49:49;101014.25;;;18.09;31.60
30724;BME280;17473;52.286;20.930;2023-05-12T03:52:16;101012.13;;;18.54;30.80
30724;BME280;17473;52.286;20.930;2023-05-12T03:54:43;101009.03;;;19.02;30.08
30724;BME280;17473;52.286;20.930;2023-05-12T03:57:11;101013.09;;;19.66;28.82
30724;BME280;17473;52.286;20.930;2023-05-12T03:59:38;101018.72;;;20.09;27.96
30724;BME280;17473;52.286;20.930;2023-05-12T04:02:05;101018.97;;;20.94;27.21
30724;BME280;17473;52.286;20.930;2023-05-12T04:04:37;101027.06;;;21.21;26.54
30724;BME280;17473;52.286;20.930;2023-05-12T04:07:04;101028.56;;;22.50;25.33
30724;BME280;17473;52.286;20.930;2023-05-12T04:09:31;101025.00;;;22.47;25.38
30724;BME280;17473;52.286;20.930;2023-05-12T04:11:59;101019.88;;;23.37;24.32
30724;BME280;17473;52.286;20.930;2023-05-12T04:14:26;101027.53;;;23.82;23.75
30724;BME280;17473;52.286;20.930;2023-05-12T04:17:08;101033.69;;;24.65;22.93
30724;BME280;17473;52.286;20.930;2023-05-12T04:19:35;101027.47;;;25.73;21.56
30724;BME280;17473;52.286;20.930;2023-05-12T04:22:02;101034.25;;;26.39;20.75
30724;BME280;17473;52.286;20.930;2023-05-12T04:24:29;101031.13;;;27.35;19.82
30724;BME280;17473;52.286;20.930;2023-05-12T04:26:57;101033.03;;;27.31;19.91
30724;BME280;17473;52.286;20.930;2023-05-12T04:29:24;101030.72;;;27.16;20.28
30724;BME280;17473;52.286;20.930;2023-05-12T04:31:53;101028.97;;;27.49;19.89
30724;BME280;17473;52.286;20.930;2023-05-12T04:34:20;101032.22;;;27.64;19.57
30724;BME280;17473;52.286;20.930;2023-05-12T04:36:47;101033.34;;;27.88;19.13
30724;BME280;17473;52.286;20.930;2023-05-12T04:39:14;101043.19;;;27.23;19.61
30724;BME280;17473;52.286;20.930;2023-05-12T04:41:41;101034.97;;;27.95;18.88
30724;BME280;17473;52.286;20.930;2023-05-12T04:44:08;101037.50;;;29.20;18.08
30724;BME280;17473;52.286;20.930;2023-05-12T04:46:35;101035.97;;;30.16;17.58
30724;BME280;17473;52.286;20.930;2023-05-12T04:49:02;101031.13;;;29.48;17.89
30724;BME280;17473;52.286;20.930;2023-05-12T04:51:30;101039.44;;;30.21;17.08
30724;BME280;17473;52.286;20.930;2023-05-12T04:53:57;101040.84;;;29.28;17.36
30724;BME280;17473;52.286;20.930;2023-05-12T04:56:24;101039.13;;;30.98;16.65
30724;BME280;17473;52.286;20.930;2023-05-12T04:58:51;101039.44;;;30.21;17.17
30724;BME280;17473;52.286;20.930;2023-05-12T05:01:19;101044.00;;;30.90;16.41
30724;BME280;17473;52.286;20.930;2023-05-12T05:03:46;101044.78;;;31.16;16.58
30724;BME280;17473;52.286;20.930;2023-05-12T05:06:13;101042.19;;;31.56;16.02
30724;BME280;17473;52.286;20.930;2023-05-12T05:08:40;101045.50;;;30.04;17.20
30724;BME280;17473;52.286;20.930;2023-05-12T05:11:07;101043.72;;;30.26;16.76
30724;BME280;17473;52.286;20.930;2023-05-12T05:13:34;101057.25;;;30.99;16.74
30724;BME280;17473;52.286;20.930;2023-05-12T05:16:01;101045.75;;;32.39;15.46
30724;BME280;17473;52.286;20.930;2023-05-12T05:18:28;101054.31;;;31.48;16.31
30724;BME280;17473;52.286;20.930;2023-05-12T05:20:56;101050.44;;;31.54;16.00
30724;BME280;17473;52.286;20.930;2023-05-12T05:23:25;101062.28;;;32.74;15.56
30724;BME280;17473;52.286;20.930;2023-05-12T05:25:52;101062.03;;;30.47;16.41
30724;BME280;17473;52.286;20.930;2023-05-12T05:28:19;101056.66;;;31.58;16.13
30724;BME280;17473;52.286;20.930;2023-05-12T05:30:46;101055.41;;;33.58;14.81
30724;BME280;17473;52.286;20.930;2023-05-12T05:33:13;101051.22;;;32.96;15.22
30724;BME280;17473;52.286;20.930;2023-05-12T05:35:40;101066.19;;;35.11;13.81
30724;BME280;17473;52.286;20.930;2023-05-12T05:38:08;101062.03;;;34.56;14.31
30724;BME280;17473;52.286;20.930;2023-05-12T05:40:35;101056.31;;;36.00;13.68
30724;BME280;17473;52.286;20.930;2023-05-12T05:43:18;101060.56;;;34.98;13.82
30724;BME280;17473;52.286;20.930;2023-05-12T05:45:45;101077.06;;;34.80;13.97
30724;BME280;17473;52.286;20.930;2023-05-12T05:48:12;101059.50;;;36.08;13.02
30724;BME280;17473;52.286;20.930;2023-05-12T05:50:39;101055.84;;;36.51;12.91
30724;BME280;17473;52.286;20.930;2023-05-12T05:53:07;101079.66;;;33.65;14.31
30724;BME280;17473;52.286;20.930;2023-05-12T05:55:34;101061.69;;;35.56;13.60
30724;BME280;17473;52.286;20.930;2023-05-12T05:58:01;101067.09;;;33.79;14.25
30724;BME280;17473;52.286;20.930;2023-05-12T06:00:28;101087.38;;;33.75;14.40
30724;BME280;17473;52.286;20.930;2023-05-12T06:02:55;101079.34;;;32.41;15.10
30724;BME280;17473;52.286;20.930;2023-05-12T06:05:22;101078.38;;;30.47;16.71
30724;BME280;17473;52.286;20.930;2023-05-12T06:07:49;101071.38;;;30.16;16.92
30724;BME280;17473;52.286;20.930;2023-05-12T06:10:16;101078.88;;;30.82;16.91
30724;BME280;17473;52.286;20.930;2023-05-12T06:12:43;101080.53;;;30.38;16.86
30724;BME280;17473;52.286;20.930;2023-05-12T06:15:11;101073.06;;;31.35;16.57
30724;BME280;17473;52.286;20.930;2023-05-12T06:17:38;101069.75;;;31.91;16.04
30724;BME280;17473;52.286;20.930;2023-05-12T06:20:06;101082.59;;;32.09;15.76
30724;BME280;17473;52.286;20.930;2023-05-12T06:22:33;101077.03;;;32.31;15.40
30724;BME280;17473;52.286;20.930;2023-05-12T06:25:01;101089.41;;;32.20;15.61
30724;BME280;17473;52.286;20.930;2023-05-12T06:27:28;101076.00;;;32.34;15.79
30724;BME280;17473;52.286;20.930;2023-05-12T06:29:55;101073.34;;;32.12;16.18
30724;BME280;17473;52.286;20.930;2023-05-12T06:32:22;101084.31;;;31.48;16.41
30724;BME280;17473;52.286;20.930;2023-05-12T06:34:49;101080.16;;;32.43;15.51
30724;BME280;17473;52.286;20.930;2023-05-12T06:37:16;101088.91;;;30.32;17.09
30724;BME280;17473;52.286;20.930;2023-05-12T06:39:43;101098.38;;;30.93;16.61
30724;BME280;17473;52.286;20.930;2023-05-12T06:42:10;101094.41;;;30.56;16.86
30724;BME280;17473;52.286;20.930;2023-05-12T06:44:38;101098.91;;;31.47;16.48
30724;BME280;17473;52.286;20.930;2023-05-12T06:47:07;101083.28;;;33.12;15.11
30724;BME280;17473;52.286;20.930;2023-05-12T06:49:35;101073.22;;;33.66;14.90
30724;BME280;17473;52.286;20.930;2023-05-12T06:52:06;101088.38;;;34.42;14.48
30724;BME280;17473;52.286;20.930;2023-05-12T06:54:33;101076.28;;;34.29;14.91
30724;BME280;17473;52.286;20.930;2023-05-12T06:57:00;101076.78;;;34.20;14.86
30724;BME280;17473;52.286;20.930;2023-05-12T06:59:27;101086.09;;;34.51;14.16
30724;BME280;17473;52.286;20.930;2023-05-12T07:01:54;101084.47;;;33.95;14.88
30724;BME280;17473;52.286;20.930;2023-05-12T07:04:21;101072.91;;;33.90;15.15
30724;BME280;17473;52.286;20.930;2023-05-12T07:06:50;101083.94;;;35.05;13.97
30724;BME280;17473;52.286;20.930;2023-05-12T07:09:17;101080.47;;;32.75;15.87
30724;BME280;17473;52.286;20.930;2023-05-12T07:11:45;101070.78;;;32.68;15.34
30724;BME280;17473;52.286;20.930;2023-05-12T07:14:12;101084.31;;;31.04;17.06
30724;BME280;17473;52.286;20.930;2023-05-12T07:16:39;101077.63;;;31.98;15.99
30724;BME280;17473;52.286;20.930;2023-05-12T07:19:06;101073.53;;;32.09;16.21
30724;BME280;17473;52.286;20.930;2023-05-12T07:21:35;101084.34;;;31.26;16.70
30724;BME280;17473;52.286;20.930;2023-05-12T07:24:03;101086.34;;;30.04;17.56
30724;BME280;17473;52.286;20.930;2023-05-12T07:26:32;101090.19;;;29.44;18.06
30724;BME280;17473;52.286;20.930;2023-05-12T07:28:59;101126.97;;;28.38;19.04
30724;BME280;17473;52.286;20.930;2023-05-12T07:31:27;101088.91;;;28.39;19.73
30724;BME280;17473;52.286;20.930;2023-05-12T07:33:55;101069.81;;;27.04;19.94
30724;BME280;17473;52.286;20.930;2023-05-12T07:36:22;101081.09;;;26.87;20.25
30724;BME280;17473;52.286;20.930;2023-05-12T07:38:49;101082.06;;;26.40;20.93
30724;BME280;17473;52.286;20.930;2023-05-12T07:41:16;101075.78;;;27.20;20.16
30724;BME280;17473;52.286;20.930;2023-05-12T07:43:44;101078.13;;;27.34;19.68
30724;BME280;17473;52.286;20.930;2023-05-12T07:46:11;101075.44;;;28.03;19.28
30724;BME280;17473;52.286;20.930;2023-05-12T07:48:38;101082.97;;;27.21;19.10
30724;BME280;17473;52.286;20.930;2023-05-12T07:51:07;101094.47;;;25.55;20.94
30724;BME280;17473;52.286;20.930;2023-05-12T07:53:34;101111.56;;;25.56;21.04
30724;BME280;17473;52.286;20.930;2023-05-12T07:56:01;101104.91;;;25.21;20.96
30724;BME280;17473;52.286;20.930;2023-05-12T07:58:29;101086.81;;;24.65;21.22
30724;BME280;17473;52.286;20.930;2023-05-12T08:00:56;101102.53;;;24.30;21.77
30724;BME280;17473;52.286;20.930;2023-05-12T08:03:26;101085.13;;;25.20;20.66
30724;BME280;17473;52.286;20.930;2023-05-12T08:05:53;101092.53;;;25.07;21.23
30724;BME280;17473;52.286;20.930;2023-05-12T08:08:20;101079.59;;;25.28;21.09
30724;BME280;17473;52.286;20.930;2023-05-12T08:10:47;101083.22;;;24.61;21.21
30724;BME280;17473;52.286;20.930;2023-05-12T08:13:14;101109.56;;;24.42;21.40
30724;BME280;17473;52.286;20.930;2023-05-12T08:15:41;101091.97;;;25.44;20.68
30724;BME280;17473;52.286;20.930;2023-05-12T08:18:08;101098.13;;;24.93;19.46
30724;BME280;17473;52.286;20.930;2023-05-12T08:20:35;101081.31;;;24.74;19.39
30724;BME280;17473;52.286;20.930;2023-05-12T08:23:02;101072.56;;;25.16;19.30
30724;BME280;17473;52.286;20.930;2023-05-12T08:25:30;101088.59;;;24.67;19.59
30724;BME280;17473;52.286;20.930;2023-05-12T08:27:57;101079.22;;;25.51;19.46
30724;BME280;17473;52.286;20.930;2023-05-12T08:30:26;101096.00;;;25.15;19.76
30724;BME280;17473;52.286;20.930;2023-05-12T08:32:54;101089.03;;;26.08;19.28
30724;BME280;17473;52.286;20.930;2023-05-12T08:35:24;101078.03;;;26.16;19.06
30724;BME280;17473;52.286;20.930;2023-05-12T08:37:52;101078.09;;;25.65;19.38
30724;BME280;17473;52.286;20.930;2023-05-12T08:40:23;101110.63;;;23.35;20.30
30724;BME280;17473;52.286;20.930;2023-05-12T08:43:07;101088.66;;;22.45;21.55
30724;BME280;17473;52.286;20.930;2023-05-12T08:45:39;101104.91;;;22.14;21.88
30724;BME280;17473;52.286;20.930;2023-05-12T08:48:09;101080.53;;;22.56;21.63
30724;BME280;17473;52.286;20.930;2023-05-12T08:50:37;101095.09;;;21.79;22.18
30724;BME280;17473;52.286;20.930;2023-05-12T08:53:10;101096.00;;;21.50;22.31
30724;BME280;17473;52.286;20.930;2023-05-12T08:55:40;101087.91;;;21.09;22.81
30724;BME280;17473;52.286;20.930;2023-05-12T08:58:17;101101.31;;;20.94;23.02
30724;BME280;17473;52.286;20.930;2023-05-12T09:00:53;101118.25;;;20.85;23.50
30724;BME280;17473;52.286;20.930;2023-05-12T09:03:20;101087.94;;;21.36;23.19
30724;BME280;17473;52.286;20.930;2023-05-12T09:05:49;101094.19;;;21.47;23.00
30724;BME280;17473;52.286;20.930;2023-05-12T09:08:16;101098.69;;;21.65;22.63
30724;BME280;17473;52.286;20.930;2023-05-12T09:10:44;101081.66;;;21.45;22.58
30724;BME280;17473;52.286;20.930;2023-05-12T09:13:32;101101.34;;;21.47;22.34
30724;BME280;17473;52.286;20.930;2023-05-12T09:16:03;101096.88;;;21.50;22.17
30724;BME280;17473;52.286;20.930;2023-05-12T09:18:57;101097.81;;;21.63;21.75
30724;BME280;17473;52.286;20.930;2023-05-12T09:21:25;101066.47;;;21.64;21.83
30724;BME280;17473;52.286;20.930;2023-05-12T09:23:55;101113.84;;;22.16;21.74
30724;BME280;17473;52.286;20.930;2023-05-12T09:26:25;101090.34;;;22.69;20.90
30724;BME280;17473;52.286;20.930;2023-05-12T09:29:03;101082.56;;;21.84;22.06
30724;BME280;17473;52.286;20.930;2023-05-12T09:31:32;101083.47;;;21.78;21.65
30724;BME280;17473;52.286;20.930;2023-05-12T09:33:59;101087.88;;;22.01;21.70
30724;BME280;17473;52.286;20.930;2023-05-12T09:36:28;101068.06;;;22.38;21.18
30724;BME280;17473;52.286;20.930;2023-05-12T09:39:05;101069.81;;;22.49;21.22
30724;BME280;17473;52.286;20.930;2023-05-12T09:41:37;101066.94;;;22.87;20.43
30724;BME280;17473;52.286;20.930;2023-05-12T09:44:05;101074.19;;;22.77;20.36
30724;BME280;17473;52.286;20.930;2023-05-12T09:46:32;101069.44;;;23.11;21.01
30724;BME280;17473;52.286;20.930;2023-05-12T09:49:00;101072.25;;;22.93;20.90
30724;BME280;17473;52.286;20.930;2023-05-12T09:51:29;101053.03;;;23.45;20.27
30724;BME280;17473;52.286;20.930;2023-05-12T09:53:57;101073.16;;;22.98;20.67
30724;BME280;17473;52.286;20.930;2023-05-12T09:56:27;101082.34;;;22.57;21.07
30724;BME280;17473;52.286;20.930;2023-05-12T09:58:56;101073.63;;;21.69;21.80
30724;BME280;17473;52.286;20.930;2023-05-12T10:01:24;101099.53;;;21.18;22.18
30724;BME280;17473;52.286;20.930;2023-05-12T10:03:57;101100.41;;;21.07;22.15
30724;BME280;17473;52.286;20.930;2023-05-12T10:06:40;101051.09;;;20.60;23.04
30724;BME280;17473;52.286;20.930;2023-05-12T10:09:23;101068.19;;;20.93;22.90
30724;BME280;17473;52.286;20.930;2023-05-12T10:11:51;101067.34;;;21.25;22.27
30724;BME280;17473;52.286;20.930;2023-05-12T10:14:21;101083.41;;;21.04;22.56
30724;BME280;17473;52.286;20.930;2023-05-12T10:16:49;101044.97;;;21.13;22.06
30724;BME280;17473;52.286;20.930;2023-05-12T10:19:18;101053.00;;;21.37;21.97
30724;BME280;17473;52.286;20.930;2023-05-12T10:21:46;101061.91;;;21.94;21.66
30724;BME280;17473;52.286;20.930;2023-05-12T10:24:16;101061.94;;;21.50;21.73
30724;BME280;17473;52.286;20.930;2023-05-12T10:26:44;101061.06;;;21.54;22.13
30724;BME280;17473;52.286;20.930;2023-05-12T10:29:12;101056.59;;;21.46;22.15
30724;BME280;17473;52.286;20.930;2023-05-12T10:31:39;101081.59;;;20.83;22.84
30724;BME280;17473;52.286;20.930;2023-05-12T10:34:16;101089.66;;;20.84;23.27
30724;BME280;17473;52.286;20.930;2023-05-12T10:36:49;101061.03;;;20.88;22.82
30724;BME280;17473;52.286;20.930;2023-05-12T10:39:17;101060.16;;;21.20;22.28
30724;BME280;17473;52.286;20.930;2023-05-12T10:41:45;101052.13;;;21.38;23.20
30724;BME280;17473;52.286;20.930;2023-05-12T10:44:12;101047.66;;;21.26;22.77
30724;BME280;17473;52.286;20.930;2023-05-12T10:46:39;101064.50;;;20.65;23.00
30724;BME280;17473;52.286;20.930;2023-05-12T10:49:09;101053.84;;;20.80;23.55
30724;BME280;17473;52.286;20.930;2023-05-12T10:51:46;101049.41;;;20.90;23.68
30724;BME280;17473;52.286;20.930;2023-05-12T10:54:23;101054.81;;;21.09;23.37
30724;BME280;17473;52.286;20.930;2023-05-12T10:56:52;101068.16;;;20.83;22.96
30724;BME280;17473;52.286;20.930;2023-05-12T10:59:24;101054.81;;;21.14;22.97
30724;BME280;17473;52.286;20.930;2023-05-12T11:02:18;101047.63;;;20.95;23.15
30724;BME280;17473;52.286;20.930;2023-05-12T11:04:52;101042.25;;;21.05;22.77
30724;BME280;17473;52.286;20.930;2023-05-12T11:07:27;101042.22;;;20.80;23.38
30724;BME280;17473;52.286;20.930;2023-05-12T11:09:59;101047.53;;;20.66;22.90
30724;BME280;17473;52.286;20.930;2023-05-12T11:12:31;101066.19;;;20.26;23.91
30724;BME280;17473;52.286;20.930;2023-05-12T11:15:01;101026.91;;;20.43;23.98
30724;BME280;17473;52.286;20.930;2023-05-12T11:17:29;101041.09;;;20.17;24.06
30724;BME280;17473;52.286;20.930;2023-05-12T11:19:56;101066.13;;;20.16;23.79
30724;BME280;17473;52.286;20.930;2023-05-12T11:22:23;101032.03;;;19.88;24.41
30724;BME280;17473;52.286;20.930;2023-05-12T11:24:51;101042.06;;;20.37;24.59
30724;BME280;17473;52.286;20.930;2023-05-12T11:27:20;101053.66;;;20.25;24.01
30724;BME280;17473;52.286;20.930;2023-05-12T11:30:01;101042.97;;;20.42;23.87
30724;BME280;17473;52.286;20.930;2023-05-12T11:32:28;101035.84;;;20.38;24.16
30724;BME280;17473;52.286;20.930;2023-05-12T11:37:39;101028.75;;;20.61;23.60
30724;BME280;17473;52.286;20.930;2023-05-12T11:40:19;101022.59;;;21.00;23.64
30724;BME280;17473;52.286;20.930;2023-05-12T11:42:50;101033.31;;;21.10;22.82
30724;BME280;17473;52.286;20.930;2023-05-12T11:45:28;101048.56;;;21.19;23.65
30724;BME280;17473;52.286;20.930;2023-05-12T11:48:12;101026.19;;;21.16;23.15
30724;BME280;17473;52.286;20.930;2023-05-12T11:50:43;101024.34;;;21.04;23.33
30724;BME280;17473;52.286;20.930;2023-05-12T11:53:15;101033.31;;;21.15;23.37
30724;BME280;17473;52.286;20.930;2023-05-12T11:55:54;101031.50;;;20.95;23.75
30724;BME280;17473;52.286;20.930;2023-05-12T11:58:24;101016.34;;;21.19;23.48
30724;BME280;17473;52.286;20.930;2023-05-12T12:01:07;101018.97;;;20.99;23.61
30724;BME280;17473;52.286;20.930;2023-05-12T12:03:48;101039.53;;;20.74;22.94
30724;BME280;17473;52.286;20.930;2023-05-12T12:06:17;101038.56;;;20.59;23.38
30724;BME280;17473;52.286;20.930;2023-05-12T12:08:58;101018.09;;;21.03;23.02
30724;BME280;17473;52.286;20.930;2023-05-12T12:11:28;101012.72;;;20.99;23.76
30724;BME280;17473;52.286;20.930;2023-05-12T12:13:56;101038.69;;;21.09;23.37
30724;BME280;17473;52.286;20.930;2023-05-12T12:16:25;101025.25;;;20.97;23.24
30724;BME280;17473;52.286;20.930;2023-05-12T12:18:53;101032.31;;;20.59;23.64
30724;BME280;17473;52.286;20.930;2023-05-12T12:21:25;101036.78;;;20.60;22.90
30724;BME280;17473;52.286;20.930;2023-05-12T12:23:52;101021.59;;;20.67;22.92
30724;BME280;17473;52.286;20.930;2023-05-12T12:26:19;101046.44;;;20.10;23.74
30724;BME280;17473;52.286;20.930;2023-05-12T12:28:47;101022.25;;;19.94;23.36
30724;BME280;17473;52.286;20.930;2023-05-12T12:31:15;101025.00;;;20.10;24.32
30724;BME280;17473;52.286;20.930;2023-05-12T12:33:42;101042.03;;;20.21;23.19
30724;BME280;17473;52.286;20.930;2023-05-12T12:36:09;101022.38;;;20.31;23.74
30724;BME280;17473;52.286;20.930;2023-05-12T12:38:36;101009.97;;;20.61;23.16
30724;BME280;17473;52.286;20.930;2023-05-12T12:41:05;101031.53;;;21.06;23.22
30724;BME280;17473;52.286;20.930;2023-05-12T12:43:32;101027.91;;;20.78;23.32
30724;BME280;17473;52.286;20.930;2023-05-12T12:45:59;101011.75;;;20.58;23.39
30724;BME280;17473;52.286;20.930;2023-05-12T12:48:26;101010.03;;;20.74;23.55
30724;BME280;17473;52.286;20.930;2023-05-12T12:50:55;101004.59;;;20.55;23.77
30724;BME280;17473;52.286;20.930;2023-05-12T12:53:22;101028.81;;;20.82;23.36